createdAt,value
2023-01-13T00:02:16.777Z,10.52
2023-01-13T00:04:49.594Z,10.58
2023-01-13T00:07:22.009Z,10.51
2023-01-13T00:09:54.455Z,10.59
2023-01-13T00:12:27.056Z,10.59
2023-01-13T00:14:59.496Z,10.57
2023-01-13T00:17:32.048Z,10.40
2023-01-13T00:20:04.718Z,10.45
2023-01-13T00:22:37.856Z,10.50
2023-01-13T00:25:11.126Z,10.55
2023-01-13T00:27:43.728Z,10.40
2023-01-13T00:30:19.131Z,10.39
2023-01-13T00:32:51.727Z,10.50
2023-01-13T00:35:24.352Z,10.49
2023-01-13T00:37:56.717Z,10.50
2023-01-13T00:40:29.219Z,10.50
2023-01-13T00:43:19.205Z,10.53
2023-01-13T00:45:52.581Z,10.40
2023-01-13T00:48:26.902Z,10.53
2023-01-13T00:51:00.829Z,10.59
2023-01-13T00:53:37.895Z,10.48
2023-01-13T00:56:16.624Z,10.45
2023-01-13T00:58:51.995Z,10.42
2023-01-13T01:01:25.614Z,10.45
2023-01-13T01:03:58.357Z,10.45
2023-01-13T01:06:31.695Z,10.41
2023-01-13T01:09:04.599Z,10.46
2023-01-13T01:11:37.944Z,10.53
2023-01-13T01:14:11.767Z,10.44
2023-01-13T01:16:44.516Z,10.45
2023-01-13T01:19:18.805Z,10.37
2023-01-13T01:21:51.276Z,10.38
2023-01-13T01:24:24.323Z,10.44
2023-01-13T01:26:57.451Z,10.37
2023-01-13T01:29:29.913Z,10.28
2023-01-13T01:32:02.375Z,10.38
2023-01-13T01:34:35.771Z,10.42
2023-01-13T01:37:08.505Z,10.44
2023-01-13T01:39:40.901Z,10.53
2023-01-13T01:42:35.261Z,10.58
2023-01-13T01:45:19.327Z,10.41
2023-01-13T01:47:56.456Z,10.33
2023-01-13T01:50:31.088Z,10.24
2023-01-13T01:53:09.992Z,10.37
2023-01-13T01:55:42.761Z,10.33
2023-01-13T01:58:21.322Z,10.13
2023-01-13T02:00:53.890Z,10.26
2023-01-13T02:03:26.866Z,10.39
2023-01-13T02:05:59.409Z,10.41
2023-01-13T02:08:32.347Z,10.32
2023-01-13T02:11:04.940Z,10.42
2023-01-13T02:13:37.303Z,10.50
2023-01-13T02:16:18.451Z,10.28
2023-01-13T02:18:57.824Z,10.40
2023-01-13T02:21:56.661Z,10.54
2023-01-13T02:24:56.746Z,10.46
2023-01-13T02:27:55.419Z,10.50
2023-01-13T02:30:57.807Z,10.49
2023-01-13T02:33:44.900Z,10.29
2023-01-13T02:36:26.077Z,10.34
2023-01-13T02:39:04.454Z,10.37
2023-01-13T02:41:59.298Z,10.40
2023-01-13T02:44:37.360Z,10.47
2023-01-13T02:47:16.069Z,10.41
2023-01-13T02:49:53.900Z,10.45
2023-01-13T02:52:31.864Z,10.35
2023-01-13T02:55:08.912Z,10.46
2023-01-13T02:57:43.396Z,10.47
2023-01-13T03:00:19.152Z,10.40
2023-01-13T03:02:54.856Z,10.29
2023-01-13T03:05:31.835Z,10.24
2023-01-13T03:08:23.902Z,10.29
2023-01-13T03:11:08.872Z,10.43
2023-01-13T03:14:02.043Z,10.39
2023-01-13T03:16:45.909Z,10.29
2023-01-13T03:19:32.398Z,10.36
2023-01-13T03:22:08.375Z,10.24
2023-01-13T03:24:47.522Z,10.23
2023-01-13T03:27:26.260Z,10.43
2023-01-13T03:30:03.469Z,10.48
2023-01-13T03:32:39.950Z,10.58
2023-01-13T03:35:17.246Z,10.50
2023-01-13T03:37:53.917Z,10.54
2023-01-13T03:40:31.136Z,10.47
2023-01-13T03:43:37.549Z,10.34
2023-01-13T03:46:16.967Z,10.37
2023-01-13T03:48:53.018Z,10.27
2023-01-13T03:51:30.878Z,10.44
2023-01-13T03:54:09.078Z,10.52
2023-01-13T03:56:44.001Z,10.50
2023-01-13T03:59:21.692Z,10.51
2023-01-13T04:02:02.833Z,10.53
2023-01-13T04:04:42.287Z,10.47
2023-01-13T04:07:21.988Z,10.52
2023-01-13T04:09:57.074Z,10.54
2023-01-13T04:12:52.368Z,10.55
2023-01-13T04:15:28.609Z,10.40
2023-01-13T04:18:12.718Z,10.44
2023-01-13T04:20:46.703Z,10.53
2023-01-13T04:23:20.309Z,10.51
2023-01-13T04:25:53.515Z,10.41
2023-01-13T04:28:27.055Z,10.38
2023-01-13T04:30:59.471Z,10.44
2023-01-13T04:33:32.001Z,10.57
2023-01-13T04:36:04.389Z,10.45
2023-01-13T04:38:36.818Z,10.42
2023-01-13T04:41:09.985Z,10.38
2023-01-13T04:43:42.524Z,10.44
2023-01-13T04:46:15.517Z,10.50
2023-01-13T04:48:48.709Z,10.49
2023-01-13T04:51:21.127Z,10.30
2023-01-13T04:53:53.639Z,10.49
2023-01-13T04:56:26.091Z,10.55
2023-01-13T04:58:58.463Z,10.28
2023-01-13T05:01:30.856Z,10.34
2023-01-13T05:04:03.387Z,10.41
2023-01-13T05:06:35.909Z,10.48
2023-01-13T05:09:08.334Z,10.42
2023-01-13T05:11:58.514Z,10.44
2023-01-13T05:14:48.686Z,10.34
2023-01-13T05:17:24.271Z,10.40
2023-01-13T05:19:56.874Z,10.43
2023-01-13T05:22:46.680Z,10.45
2023-01-13T05:25:24.691Z,10.38
2023-01-13T05:27:58.907Z,10.52
2023-01-13T05:30:33.929Z,10.49
2023-01-13T05:33:06.442Z,10.46
2023-01-13T05:35:40.759Z,10.48
2023-01-13T05:38:14.305Z,10.44
2023-01-13T05:41:07.411Z,10.63
2023-01-13T05:43:39.927Z,10.63
2023-01-13T05:46:13.483Z,10.53
2023-01-13T05:48:47.484Z,10.57
2023-01-13T05:51:26.266Z,10.69
2023-01-13T05:53:59.304Z,10.79
2023-01-13T05:56:32.144Z,10.62
2023-01-13T05:59:04.918Z,10.54
2023-01-13T06:01:37.463Z,10.45
2023-01-13T06:04:09.831Z,10.56
2023-01-13T06:06:43.551Z,10.61
2023-01-13T06:09:18.656Z,10.60
2023-01-13T06:11:53.615Z,10.54
2023-01-13T06:14:26.168Z,10.62
2023-01-13T06:16:58.709Z,10.58
2023-01-13T06:19:32.226Z,10.61
2023-01-13T06:22:09.920Z,10.55
2023-01-13T06:24:43.177Z,10.59
2023-01-13T06:27:19.101Z,10.56
2023-01-13T06:29:51.605Z,10.50
2023-01-13T06:32:28.287Z,10.61
2023-01-13T06:35:05.648Z,10.54
2023-01-13T06:37:39.205Z,10.55
2023-01-13T06:40:16.750Z,10.60
2023-01-13T06:43:07.673Z,10.62
2023-01-13T06:45:40.455Z,10.65
2023-01-13T06:48:13.442Z,10.66
2023-01-13T06:50:47.177Z,10.70
2023-01-13T06:53:26.268Z,10.76
2023-01-13T06:55:58.629Z,10.70
2023-01-13T06:58:31.800Z,10.67
2023-01-13T07:01:05.108Z,10.62
2023-01-13T07:03:37.618Z,10.57
2023-01-13T07:06:10.538Z,10.55
2023-01-13T07:08:44.343Z,10.56
2023-01-13T07:11:16.650Z,10.61
2023-01-13T07:14:09.414Z,10.58
2023-01-13T07:16:44.496Z,10.53
2023-01-13T07:19:34.868Z,10.68
2023-01-13T07:22:07.838Z,10.71
2023-01-13T07:24:40.538Z,10.71
2023-01-13T07:27:12.820Z,10.73
2023-01-13T07:29:45.348Z,10.70
2023-01-13T07:32:17.684Z,10.69
2023-01-13T07:34:50.082Z,10.70
2023-01-13T07:37:22.549Z,10.70
2023-01-13T07:39:54.923Z,10.73
2023-01-13T07:42:44.659Z,10.77
2023-01-13T07:45:17.213Z,10.77
2023-01-13T07:47:52.523Z,10.73
2023-01-13T07:50:25.179Z,10.77
2023-01-13T07:53:00.575Z,10.70
2023-01-13T07:55:33.402Z,10.75
2023-01-13T07:58:06.490Z,10.60
2023-01-13T08:00:39.592Z,10.68
2023-01-13T08:03:11.893Z,10.68
2023-01-13T08:05:44.421Z,10.73
2023-01-13T08:08:17.362Z,10.70
2023-01-13T08:10:49.805Z,10.68
2023-01-13T08:13:22.525Z,10.78
2023-01-13T08:16:00.465Z,10.65
2023-01-13T08:18:34.516Z,10.66
2023-01-13T08:21:09.873Z,10.77
2023-01-13T08:23:43.131Z,10.78
2023-01-13T08:26:18.436Z,10.74
2023-01-13T08:28:50.782Z,10.65
2023-01-13T08:31:23.417Z,10.72
2023-01-13T08:34:01.893Z,10.78
2023-01-13T08:36:34.704Z,10.75
2023-01-13T08:39:15.203Z,10.83
2023-01-13T08:41:58.797Z,10.77
2023-01-13T08:44:33.381Z,10.74
2023-01-13T08:47:49.973Z,10.72
2023-01-13T08:50:31.735Z,10.84
2023-01-13T08:53:22.402Z,10.88
2023-01-13T08:56:17.486Z,11.01
2023-01-13T08:59:25.613Z,11.01
2023-01-13T09:02:07.194Z,11.05
2023-01-13T09:04:48.861Z,11.08
2023-01-13T09:07:21.821Z,10.99
2023-01-13T09:09:56.278Z,10.99
2023-01-13T09:12:46.738Z,10.98
2023-01-13T09:15:19.745Z,10.93
2023-01-13T09:17:52.233Z,11.12
2023-01-13T09:20:24.883Z,11.16
2023-01-13T09:22:57.257Z,11.13
2023-01-13T09:25:30.795Z,11.28
2023-01-13T09:28:04.993Z,11.26
2023-01-13T09:30:37.549Z,11.39
2023-01-13T09:33:27.733Z,11.41
2023-01-13T09:36:02.357Z,11.33
2023-01-13T09:38:35.344Z,11.36
2023-01-13T09:41:32.497Z,11.39
2023-01-13T09:44:08.685Z,11.44
2023-01-13T09:46:48.326Z,11.50
2023-01-13T09:49:24.038Z,11.46
2023-01-13T09:52:05.036Z,11.48
2023-01-13T09:54:43.616Z,11.48
2023-01-13T09:57:18.216Z,11.51
2023-01-13T09:59:51.784Z,11.51
2023-01-13T10:02:32.272Z,11.35
2023-01-13T10:05:23.788Z,11.17
2023-01-13T10:08:04.654Z,11.27
2023-01-13T10:10:43.246Z,11.34
2023-01-13T10:13:21.693Z,11.43
2023-01-13T10:16:06.725Z,11.54
2023-01-13T10:18:43.925Z,11.51
2023-01-13T10:21:35.034Z,11.41
2023-01-13T10:24:16.547Z,11.48
2023-01-13T10:26:56.009Z,11.60
2023-01-13T10:29:30.391Z,11.78
2023-01-13T10:32:11.994Z,11.62
2023-01-13T10:34:51.487Z,11.63
2023-01-13T10:37:27.074Z,11.71
2023-01-13T10:40:02.758Z,11.74
2023-01-13T10:42:35.104Z,11.74
2023-01-13T10:45:20.510Z,11.73
2023-01-13T10:48:07.895Z,11.79
2023-01-13T10:50:41.835Z,11.63
2023-01-13T10:53:24.552Z,11.67
2023-01-13T10:56:06.350Z,11.79
2023-01-13T10:58:38.880Z,11.75
2023-01-13T11:01:25.960Z,11.53
2023-01-13T11:03:58.992Z,11.52
2023-01-13T11:06:34.155Z,11.75
2023-01-13T11:09:20.243Z,11.71
2023-01-13T11:11:56.001Z,11.64
2023-01-13T11:14:39.814Z,11.75
2023-01-13T11:17:38.656Z,11.81
2023-01-13T11:20:21.941Z,11.85
2023-01-13T11:22:56.950Z,11.86
2023-01-13T11:25:35.265Z,11.71
2023-01-13T11:28:31.700Z,11.75
2023-01-13T11:31:11.891Z,11.64
2023-01-13T11:33:49.635Z,11.66
2023-01-13T11:36:25.693Z,11.46
2023-01-13T11:39:04.844Z,11.41
2023-01-13T11:41:46.661Z,11.46
2023-01-13T11:44:24.609Z,11.39
2023-01-13T11:46:57.592Z,11.51
2023-01-13T11:49:33.803Z,11.57
2023-01-13T11:52:16.803Z,11.49
2023-01-13T11:55:06.273Z,11.41
2023-01-13T11:57:56.065Z,11.35
2023-01-13T12:00:36.925Z,11.47
2023-01-13T12:03:27.859Z,11.34
2023-01-13T12:06:10.040Z,11.45
2023-01-13T12:09:12.047Z,11.32
2023-01-13T12:12:17.302Z,11.46
2023-01-13T12:15:00.470Z,11.39
2023-01-13T12:17:40.513Z,11.30
2023-01-13T12:20:31.185Z,11.28
2023-01-13T12:23:08.803Z,11.27
2023-01-13T12:25:46.586Z,11.24
2023-01-13T12:28:24.408Z,11.18
2023-01-13T12:31:02.101Z,11.26
2023-01-13T12:33:49.857Z,11.34
2023-01-13T12:36:28.760Z,11.32
2023-01-13T12:39:14.875Z,11.39
2023-01-13T12:42:12.558Z,11.49
2023-01-13T12:45:08.430Z,11.40
2023-01-13T12:47:43.739Z,11.49
2023-01-13T12:50:44.478Z,11.44
2023-01-13T12:53:38.707Z,11.46
2023-01-13T12:56:31.819Z,11.19
2023-01-13T12:59:36.877Z,11.33
2023-01-13T13:02:38.787Z,11.36
2023-01-13T13:05:51.352Z,11.38
2023-01-13T13:08:40.895Z,11.35
2023-01-13T13:11:41.281Z,11.45
2023-01-13T13:14:15.781Z,11.52
2023-01-13T13:16:53.407Z,11.37
2023-01-13T13:19:50.187Z,11.29
2023-01-13T13:22:51.913Z,11.37
2023-01-13T13:25:27.081Z,11.32
2023-01-13T13:28:22.939Z,11.15
2023-01-13T13:31:17.266Z,11.27
2023-01-13T13:34:10.534Z,11.34
2023-01-13T13:37:03.568Z,11.35
2023-01-13T13:39:54.915Z,11.38
2023-01-13T13:42:52.201Z,11.38
2023-01-13T13:45:44.797Z,11.39
2023-01-13T13:48:26.843Z,11.47
2023-01-13T13:51:02.495Z,11.40
2023-01-13T13:53:37.691Z,11.31
2023-01-13T13:56:20.778Z,11.22
2023-01-13T13:58:53.593Z,11.15
2023-01-13T14:01:29.829Z,11.13
2023-01-13T14:04:13.780Z,10.97
2023-01-13T14:06:58.218Z,11.08
2023-01-13T14:09:41.358Z,10.93
2023-01-13T14:12:20.780Z,10.76
2023-01-13T14:14:57.088Z,10.87
2023-01-13T14:17:31.368Z,10.80
2023-01-13T14:20:06.284Z,10.95
2023-01-13T14:22:38.929Z,10.95
2023-01-13T14:25:30.633Z,10.92
2023-01-13T14:28:18.525Z,10.65
2023-01-13T14:30:52.519Z,10.69
2023-01-13T14:33:34.110Z,10.63
2023-01-13T14:36:18.999Z,10.73
2023-01-13T14:39:12.303Z,10.65
2023-01-13T14:41:50.776Z,10.56
2023-01-13T14:44:27.019Z,10.53
2023-01-13T14:47:03.029Z,10.70
2023-01-13T14:49:39.841Z,10.71
2023-01-13T14:52:19.030Z,10.61
2023-01-13T14:54:53.509Z,10.72
2023-01-13T14:57:32.014Z,10.75
2023-01-13T15:00:19.769Z,10.74
2023-01-13T15:03:07.331Z,10.59
2023-01-13T15:05:51.325Z,10.75
2023-01-13T15:08:40.384Z,10.75
2023-01-13T15:11:25.432Z,10.80
2023-01-13T15:14:02.699Z,10.79
2023-01-13T15:16:36.897Z,10.72
2023-01-13T15:19:11.472Z,10.63
2023-01-13T15:21:43.812Z,10.75
2023-01-13T15:24:16.809Z,10.72
2023-01-13T15:26:49.352Z,10.47
2023-01-13T15:29:24.273Z,10.53
2023-01-13T15:31:56.822Z,10.70
2023-01-13T15:34:29.561Z,10.69
2023-01-13T15:37:01.968Z,10.63
2023-01-13T15:39:34.971Z,10.39
2023-01-13T15:42:24.916Z,10.51
2023-01-13T15:45:14.809Z,10.43
2023-01-13T15:47:48.356Z,10.30
2023-01-13T15:50:23.169Z,10.19
2023-01-13T15:52:53.976Z,10.14
2023-01-13T15:55:31.695Z,10.14
2023-01-13T15:58:04.483Z,10.09
2023-01-13T16:00:37.062Z,10.09
2023-01-13T16:03:12.550Z,9.87
2023-01-13T16:05:46.372Z,10.04
2023-01-13T16:08:21.007Z,9.89
2023-01-13T16:10:53.652Z,9.68
2023-01-13T16:13:26.000Z,9.81
2023-01-13T16:16:00.391Z,9.75
2023-01-13T16:18:40.477Z,9.69
2023-01-13T16:21:15.155Z,9.71
2023-01-13T16:23:46.108Z,9.86
2023-01-13T16:26:44.075Z,9.99
2023-01-13T16:29:18.415Z,9.95
2023-01-13T16:31:51.731Z,9.86
2023-01-13T16:34:24.263Z,9.99
2023-01-13T16:37:29.930Z,9.89
2023-01-13T16:40:35.820Z,10.06
2023-01-13T16:43:08.383Z,10.11
2023-01-13T16:45:41.328Z,10.02
2023-01-13T16:48:22.829Z,10.04
2023-01-13T16:50:55.639Z,10.00
2023-01-13T16:53:28.326Z,10.08
2023-01-13T16:56:00.683Z,9.95
2023-01-13T16:58:33.145Z,9.73
2023-01-13T17:01:06.891Z,9.78
2023-01-13T17:03:39.566Z,9.57
2023-01-13T17:06:14.468Z,9.65
2023-01-13T17:08:46.937Z,9.67
2023-01-13T17:11:20.611Z,9.65
2023-01-13T17:13:53.701Z,9.55
2023-01-13T17:16:27.057Z,9.61
2023-01-13T17:18:59.676Z,9.31
2023-01-13T17:21:32.448Z,9.35
2023-01-13T17:24:08.136Z,9.25
2023-01-13T17:26:44.047Z,9.54
2023-01-13T17:33:07.051Z,9.44
2023-01-13T17:35:41.691Z,9.35
2023-01-13T17:38:17.544Z,9.31
2023-01-13T17:43:53.805Z,9.30
2023-01-13T17:46:26.402Z,9.28
2023-01-13T17:49:00.286Z,9.31
2023-01-13T17:51:33.050Z,9.31
2023-01-13T17:54:05.427Z,9.17
2023-01-13T17:56:38.062Z,9.30
2023-01-13T17:59:11.158Z,9.39
2023-01-13T18:01:43.881Z,9.34
2023-01-13T18:04:19.546Z,9.35
2023-01-13T18:06:53.540Z,9.16
2023-01-13T18:09:26.959Z,9.15
2023-01-13T18:11:59.644Z,9.26
2023-01-13T18:14:32.301Z,9.16
2023-01-13T18:17:05.324Z,9.27
2023-01-13T18:19:55.828Z,9.12
2023-01-13T18:22:46.141Z,9.16
2023-01-13T18:25:36.064Z,9.12
2023-01-13T18:28:09.059Z,9.17
2023-01-13T18:30:41.630Z,9.05
2023-01-13T18:33:14.221Z,9.07
2023-01-13T18:35:46.736Z,9.14
2023-01-13T18:38:20.325Z,9.12
2023-01-13T18:40:52.759Z,9.14
2023-01-13T18:43:25.367Z,9.26
2023-01-13T18:45:58.030Z,9.26
2023-01-13T18:48:31.525Z,9.11
2023-01-13T18:51:05.343Z,9.02
2023-01-13T18:53:38.018Z,9.15
2023-01-13T18:56:15.554Z,9.12
2023-01-13T18:59:03.086Z,9.22
2023-01-13T19:01:37.919Z,9.37
2023-01-13T19:04:15.856Z,9.16
2023-01-13T19:06:51.729Z,9.05
2023-01-13T19:09:26.916Z,9.23
2023-01-13T19:12:01.246Z,9.16
2023-01-13T19:14:37.833Z,9.26
2023-01-13T19:17:14.267Z,9.09
2023-01-13T19:19:48.572Z,9.03
2023-01-13T19:22:23.941Z,9.04
2023-01-13T19:24:57.075Z,8.99
2023-01-13T19:27:30.005Z,9.01
2023-01-13T19:30:03.583Z,8.79
2023-01-13T19:32:36.738Z,9.02
2023-01-13T19:35:13.180Z,8.82
2023-01-13T19:37:45.874Z,8.85
2023-01-13T19:40:19.150Z,8.89
2023-01-13T19:43:09.090Z,8.95
2023-01-13T19:45:42.016Z,9.16
2023-01-13T19:48:16.305Z,9.02
2023-01-13T19:50:49.745Z,9.14
2023-01-13T19:53:22.454Z,9.19
2023-01-13T19:56:10.812Z,9.09
2023-01-13T19:58:51.664Z,9.25
2023-01-13T20:01:41.955Z,9.14
2023-01-13T20:04:27.157Z,9.01
2023-01-13T20:07:00.362Z,8.89
2023-01-13T20:09:34.553Z,8.94
2023-01-13T20:12:09.499Z,8.83
2023-01-13T20:14:48.319Z,8.70
2023-01-13T20:17:22.554Z,8.58
2023-01-13T20:19:59.002Z,8.64
2023-01-13T20:22:34.550Z,8.80
2023-01-13T20:25:08.142Z,8.90
2023-01-13T20:27:41.588Z,8.84
2023-01-13T20:30:15.604Z,8.88
2023-01-13T20:32:48.523Z,8.78
2023-01-13T20:35:29.858Z,8.70
2023-01-13T20:38:03.053Z,8.46
2023-01-13T20:40:35.728Z,8.37
2023-01-13T20:43:08.234Z,8.45
2023-01-13T20:45:40.831Z,8.51
2023-01-13T20:48:13.699Z,8.65
2023-01-13T20:50:46.491Z,8.25
2023-01-13T20:53:19.044Z,8.30
2023-01-13T20:55:52.033Z,8.56
2023-01-13T20:58:25.016Z,8.42
2023-01-13T21:01:01.107Z,8.27
2023-01-13T21:03:33.978Z,8.39
2023-01-13T21:06:07.167Z,8.44
2023-01-13T21:08:40.104Z,8.51
2023-01-13T21:11:15.199Z,8.48
2023-01-13T21:14:05.522Z,8.36
2023-01-13T21:16:38.418Z,8.45
2023-01-13T21:19:12.041Z,8.55
2023-01-13T21:21:44.629Z,8.61
2023-01-13T21:24:17.271Z,8.42
2023-01-13T21:26:52.775Z,8.43
2023-01-13T21:29:26.148Z,8.55
2023-01-13T21:32:51.588Z,8.51
2023-01-13T21:36:48.553Z,8.47
2023-01-13T21:39:22.525Z,8.66
2023-01-13T21:42:24.238Z,8.63
2023-01-13T21:45:14.182Z,8.58
2023-01-13T21:47:49.505Z,8.62
2023-01-13T21:50:24.658Z,8.55
2023-01-13T21:52:58.890Z,8.41
2023-01-13T21:55:32.473Z,8.52
2023-01-13T21:58:12.245Z,8.51
2023-01-13T22:00:46.385Z,8.53
2023-01-13T22:03:21.998Z,8.45
2023-01-13T22:05:57.679Z,8.38
2023-01-13T22:08:32.930Z,8.37
2023-01-13T22:11:06.733Z,8.52
2023-01-13T22:13:58.256Z,8.36
2023-01-13T22:16:31.728Z,8.32
2023-01-13T22:19:04.684Z,8.23
2023-01-13T22:21:37.412Z,8.19
2023-01-13T22:24:10.858Z,8.15
2023-01-13T22:26:43.443Z,8.22
2023-01-13T22:29:16.131Z,8.14
2023-01-13T22:31:48.803Z,8.07
2023-01-13T22:34:33.035Z,8.15
2023-01-13T22:37:19.740Z,8.12
2023-01-13T22:39:52.805Z,8.02
2023-01-13T22:42:25.313Z,7.94
2023-01-13T22:44:57.902Z,7.88
2023-01-13T22:47:31.429Z,7.71
2023-01-13T22:50:04.249Z,7.62
2023-01-13T22:52:37.593Z,7.61
2023-01-13T22:55:11.631Z,7.68
2023-01-13T22:57:48.239Z,7.83
2023-01-13T23:00:25.063Z,8.07
2023-01-13T23:02:57.614Z,8.05
2023-01-13T23:05:30.789Z,7.82
2023-01-13T23:08:03.319Z,7.88
2023-01-13T23:10:36.131Z,8.05
2023-01-13T23:13:09.915Z,8.00
2023-01-13T23:15:42.517Z,7.90
2023-01-13T23:18:16.802Z,8.02
2023-01-13T23:20:50.071Z,8.15
2023-01-13T23:23:26.587Z,8.09
2023-01-13T23:26:06.578Z,8.15
2023-01-13T23:28:40.569Z,8.12
2023-01-13T23:31:16.231Z,8.03
2023-01-13T23:33:49.635Z,7.98
2023-01-13T23:36:24.304Z,8.09
2023-01-13T23:38:58.442Z,7.89
2023-01-13T23:41:31.685Z,7.88
2023-01-13T23:44:04.189Z,7.91
2023-01-13T23:46:37.085Z,7.99
2023-01-13T23:49:09.530Z,8.01
2023-01-13T23:51:41.960Z,7.85
2023-01-13T23:54:14.352Z,7.85
2023-01-13T23:56:49.158Z,7.76
2023-01-13T23:59:22.468Z,7.95
